createdAt,value
2019-05-23T00:00:30.435Z,12.50
2019-05-23T00:01:30.404Z,14.40
2019-05-23T00:02:30.375Z,12.60
2019-05-23T00:03:30.345Z,15.70
2019-05-23T00:04:30.316Z,14.00
2019-05-23T00:05:30.286Z,16.50
2019-05-23T00:06:30.256Z,13.70
2019-05-23T00:07:30.228Z,18.20
2019-05-23T00:08:30.199Z,15.00
2019-05-23T00:09:30.173Z,12.00
2019-05-23T00:10:30.138Z,12.10
2019-05-23T00:11:30.109Z,13.40
2019-05-23T00:12:30.079Z,16.40
2019-05-23T00:13:30.049Z,16.40
2019-05-23T00:14:30.021Z,15.90
2019-05-23T00:15:29.992Z,14.80
2019-05-23T00:16:29.962Z,11.70
2019-05-23T00:17:29.932Z,11.70
2019-05-23T00:18:29.901Z,16.70
2019-05-23T00:19:29.888Z,16.30
2019-05-23T00:20:29.842Z,14.60
2019-05-23T00:21:29.815Z,15.00
2019-05-23T00:22:29.785Z,18.60
2019-05-23T00:23:29.755Z,13.80
2019-05-23T00:24:29.725Z,15.50
2019-05-23T00:25:29.711Z,12.90
2019-05-23T00:26:29.665Z,17.30
2019-05-23T00:27:29.637Z,16.60
2019-05-23T00:28:29.607Z,15.50
2019-05-23T00:29:29.577Z,15.90
2019-05-23T00:30:29.548Z,16.80
2019-05-23T00:31:29.521Z,17.00
2019-05-23T00:32:29.488Z,15.00
2019-05-23T00:33:29.458Z,14.10
2019-05-23T00:34:29.449Z,13.90
2019-05-23T00:35:29.398Z,14.50
2019-05-23T00:36:29.369Z,15.70
2019-05-23T00:37:29.342Z,13.70
2019-05-23T00:38:29.309Z,17.50
2019-05-23T00:39:29.282Z,18.10
2019-05-23T00:40:29.250Z,15.40
2019-05-23T00:41:29.221Z,19.80
2019-05-23T00:42:29.189Z,18.40
2019-05-23T00:43:29.161Z,19.50
2019-05-23T00:44:29.132Z,21.50
2019-05-23T00:45:29.113Z,19.70
2019-05-23T00:46:29.080Z,19.30
2019-05-23T00:47:29.072Z,18.20
2019-05-23T00:48:29.018Z,18.00
2019-05-23T00:49:29.017Z,17.60
2019-05-23T00:50:28.951Z,19.20
2019-05-23T00:51:28.923Z,23.40
2019-05-23T00:52:28.897Z,18.60
2019-05-23T00:53:28.863Z,17.90
2019-05-23T00:54:28.833Z,15.30
2019-05-23T00:55:29.013Z,22.40
2019-05-23T00:56:28.772Z,22.00
2019-05-23T00:57:28.743Z,17.70
2019-05-23T00:58:28.713Z,17.60
2019-05-23T00:59:28.684Z,18.70
2019-05-23T01:00:28.656Z,19.20
2019-05-23T01:01:28.624Z,23.00
2019-05-23T01:02:28.595Z,17.60
2019-05-23T01:03:28.580Z,21.90
2019-05-23T01:04:28.533Z,20.40
2019-05-23T01:05:28.505Z,18.20
2019-05-23T01:06:28.478Z,19.10
2019-05-23T01:07:28.447Z,20.90
2019-05-23T01:08:28.416Z,19.60
2019-05-23T01:09:28.388Z,20.10
2019-05-23T01:10:28.354Z,20.70
2019-05-23T01:11:28.324Z,30.20
2019-05-23T01:12:28.299Z,21.10
2019-05-23T01:13:28.265Z,20.00
2019-05-23T01:14:28.242Z,21.50
2019-05-23T01:15:28.204Z,20.50
2019-05-23T01:16:28.173Z,21.10
2019-05-23T01:17:28.144Z,18.40
2019-05-23T01:18:28.112Z,21.40
2019-05-23T01:19:28.083Z,20.60
2019-05-23T01:20:28.053Z,18.00
2019-05-23T01:21:28.027Z,21.80
2019-05-23T01:22:27.992Z,19.70
2019-05-23T01:23:27.967Z,22.60
2019-05-23T01:24:27.933Z,19.40
2019-05-23T01:25:27.903Z,20.10
2019-05-23T01:26:27.873Z,22.60
2019-05-23T01:27:27.910Z,18.40
2019-05-23T01:28:27.814Z,18.70
2019-05-23T01:29:37.129Z,20.30
2019-05-23T01:30:27.750Z,22.20
2019-05-23T01:31:27.742Z,19.70
2019-05-23T01:32:27.710Z,20.10
2019-05-23T01:33:27.663Z,20.60
2019-05-23T01:34:27.632Z,19.70
2019-05-23T01:35:27.601Z,20.00
2019-05-23T01:36:27.571Z,20.50
2019-05-23T01:37:27.539Z,15.50
2019-05-23T01:38:27.511Z,17.30
2019-05-23T01:39:27.479Z,17.40
2019-05-23T01:40:27.451Z,17.70
2019-05-23T01:41:27.426Z,20.30
2019-05-23T01:42:27.391Z,21.50
2019-05-23T01:43:27.359Z,22.80
2019-05-23T01:44:27.329Z,21.70
2019-05-23T01:45:27.298Z,20.30
2019-05-23T01:46:27.269Z,16.60
2019-05-23T01:47:27.237Z,21.90
2019-05-23T01:48:27.207Z,20.00
2019-05-23T01:49:27.181Z,19.50
2019-05-23T01:50:27.154Z,18.80
2019-05-23T01:51:27.117Z,19.40
2019-05-23T01:52:27.092Z,21.00
2019-05-23T01:53:27.056Z,21.30
2019-05-23T01:54:27.024Z,22.40
2019-05-23T01:55:26.995Z,18.90
2019-05-23T01:56:26.963Z,19.90
2019-05-23T01:57:26.934Z,19.30
2019-05-23T01:58:26.902Z,18.50
2019-05-23T01:59:26.871Z,18.50
2019-05-23T02:00:26.843Z,17.30
2019-05-23T02:01:26.811Z,19.50
2019-05-23T02:02:26.782Z,15.80
2019-05-23T02:03:26.749Z,19.10
2019-05-23T02:04:26.733Z,22.70
2019-05-23T02:05:26.690Z,20.70
2019-05-23T02:06:26.662Z,21.90
2019-05-23T02:07:26.639Z,23.60
2019-05-23T02:08:26.600Z,20.60
2019-05-23T02:09:26.572Z,26.20
2019-05-23T02:10:26.537Z,19.20
2019-05-23T02:11:26.506Z,21.00
2019-05-23T02:12:26.478Z,21.00
2019-05-23T02:13:26.446Z,19.70
2019-05-23T02:14:26.415Z,20.20
2019-05-23T02:15:26.383Z,20.00
2019-05-23T02:16:26.354Z,26.50
2019-05-23T02:17:26.327Z,18.50
2019-05-23T02:18:26.292Z,19.10
2019-05-23T02:19:26.261Z,20.60
2019-05-23T02:20:26.233Z,20.80
2019-05-23T02:21:26.203Z,23.90
2019-05-23T02:22:26.172Z,22.40
2019-05-23T02:23:26.142Z,23.10
2019-05-23T02:24:26.119Z,20.20
2019-05-23T02:25:26.098Z,23.50
2019-05-23T02:26:26.048Z,21.30
2019-05-23T02:27:26.019Z,18.40
2019-05-23T02:28:25.994Z,23.80
2019-05-23T02:29:26.101Z,18.80
2019-05-23T02:30:35.750Z,24.80
2019-05-23T02:31:25.894Z,21.60
2019-05-23T02:32:25.865Z,20.10
2019-05-23T02:33:25.832Z,21.90
2019-05-23T02:34:25.803Z,22.50
2019-05-23T02:35:25.772Z,19.10
2019-05-23T02:36:25.742Z,25.80
2019-05-23T02:37:25.712Z,23.40
2019-05-23T02:38:25.683Z,20.20
2019-05-23T02:39:25.650Z,17.70
2019-05-23T02:40:25.619Z,19.20
2019-05-23T02:41:25.604Z,18.20
2019-05-23T02:42:25.555Z,23.10
2019-05-23T02:43:25.527Z,25.50
2019-05-23T02:44:25.538Z,21.10
2019-05-23T02:45:25.465Z,21.70
2019-05-23T02:46:25.451Z,20.80
2019-05-23T02:47:25.403Z,18.90
2019-05-23T02:48:25.376Z,18.40
2019-05-23T02:49:25.423Z,17.40
2019-05-23T02:50:25.403Z,19.80
2019-05-23T02:51:25.280Z,19.20
2019-05-23T02:52:25.247Z,19.50
2019-05-23T02:53:25.216Z,22.40
2019-05-23T02:54:25.187Z,17.80
2019-05-23T02:55:25.153Z,23.30
2019-05-23T02:56:25.122Z,20.70
2019-05-23T02:57:25.092Z,20.10
2019-05-23T02:58:25.062Z,20.00
2019-05-23T02:59:25.031Z,16.30
2019-05-23T03:00:24.999Z,20.70
2019-05-23T03:01:25.042Z,20.00
2019-05-23T03:02:24.938Z,19.10
2019-05-23T03:03:24.906Z,22.50
2019-05-23T03:04:24.881Z,22.30
2019-05-23T03:05:24.844Z,25.50
2019-05-23T03:06:24.814Z,23.20
2019-05-23T03:07:24.782Z,25.70
2019-05-23T03:08:24.753Z,25.70
2019-05-23T03:09:24.722Z,21.10
2019-05-23T03:10:24.700Z,21.40
2019-05-23T03:11:24.659Z,21.20
2019-05-23T03:12:25.448Z,19.90
2019-05-23T03:13:24.596Z,21.70
2019-05-23T03:14:24.564Z,20.50
2019-05-23T03:15:24.536Z,22.20
2019-05-23T03:16:24.517Z,19.50
2019-05-23T03:17:24.476Z,20.50
2019-05-23T03:18:24.439Z,23.00
2019-05-23T03:19:24.413Z,26.20
2019-05-23T03:20:24.378Z,23.60
2019-05-23T03:21:24.357Z,23.90
2019-05-23T03:22:24.321Z,21.60
2019-05-23T03:23:24.286Z,23.10
2019-05-23T03:24:24.268Z,23.70
2019-05-23T03:25:24.226Z,22.90
2019-05-23T03:26:24.194Z,21.80
2019-05-23T03:27:24.167Z,23.30
2019-05-23T03:28:24.130Z,22.60
2019-05-23T03:29:24.100Z,25.70
2019-05-23T03:30:24.070Z,25.40
2019-05-23T03:31:30.763Z,23.80
2019-05-23T03:32:24.009Z,25.00
2019-05-23T03:33:23.978Z,24.70
2019-05-23T03:34:23.949Z,24.20
2019-05-23T03:35:23.915Z,27.00
2019-05-23T03:36:23.884Z,25.00
2019-05-23T03:37:23.857Z,29.40
2019-05-23T03:38:23.824Z,24.10
2019-05-23T03:39:23.797Z,27.10
2019-05-23T03:40:23.766Z,24.70
2019-05-23T03:41:23.730Z,22.80
2019-05-23T03:42:23.702Z,25.50
2019-05-23T03:43:23.668Z,24.80
2019-05-23T03:44:23.640Z,24.40
2019-05-23T03:45:23.609Z,24.60
2019-05-23T03:46:23.575Z,20.90
2019-05-23T03:47:23.544Z,24.60
2019-05-23T03:48:23.515Z,20.80
2019-05-23T03:49:23.483Z,22.60
2019-05-23T03:50:23.451Z,26.10
2019-05-23T03:51:23.426Z,24.20
2019-05-23T03:52:23.389Z,22.20
2019-05-23T03:53:23.366Z,18.50
2019-05-23T03:54:23.328Z,22.00
2019-05-23T03:55:23.298Z,18.00
2019-05-23T03:56:23.268Z,22.60
2019-05-23T03:57:25.717Z,19.10
2019-05-23T03:58:23.210Z,18.60
2019-05-23T03:59:23.176Z,23.00
2019-05-23T04:00:23.153Z,22.50
2019-05-23T04:01:23.116Z,19.40
2019-05-23T04:02:23.086Z,17.40
2019-05-23T04:03:23.053Z,15.20
2019-05-23T04:04:23.023Z,16.60
2019-05-23T04:05:22.993Z,15.70
2019-05-23T04:06:22.963Z,15.80
2019-05-23T04:07:22.976Z,18.90
2019-05-23T04:08:22.904Z,17.60
2019-05-23T04:09:22.871Z,17.50
2019-05-23T04:10:22.843Z,16.50
2019-05-23T04:11:22.810Z,22.60
2019-05-23T04:12:22.783Z,17.20
2019-05-23T04:13:22.752Z,17.20
2019-05-23T04:14:22.720Z,15.00
2019-05-23T04:15:22.695Z,16.00
2019-05-23T04:16:22.659Z,17.70
2019-05-23T04:17:22.631Z,15.20
2019-05-23T04:18:22.601Z,17.10
2019-05-23T04:19:22.575Z,13.60
2019-05-23T04:20:22.544Z,13.30
2019-05-23T04:21:22.511Z,14.00
2019-05-23T04:22:22.484Z,14.20
2019-05-23T04:23:22.531Z,13.60
2019-05-23T04:24:22.418Z,15.30
2019-05-23T04:25:22.389Z,15.80
2019-05-23T04:26:22.360Z,15.70
2019-05-23T04:27:22.333Z,14.70
2019-05-23T04:28:22.299Z,16.80
2019-05-23T04:29:22.275Z,14.20
2019-05-23T04:30:22.241Z,17.10
2019-05-23T04:31:22.244Z,15.40
2019-05-23T04:32:22.181Z,13.10
2019-05-23T04:33:22.150Z,12.80
2019-05-23T04:34:22.120Z,12.60
2019-05-23T04:35:22.101Z,15.00
2019-05-23T04:36:22.066Z,14.10
2019-05-23T04:37:22.045Z,14.90
2019-05-23T04:38:22.014Z,17.90
2019-05-23T04:39:21.978Z,17.40
2019-05-23T04:40:21.952Z,14.70
2019-05-23T04:41:21.917Z,18.00
2019-05-23T04:42:21.888Z,21.90
2019-05-23T04:43:21.859Z,24.10
2019-05-23T04:44:21.830Z,18.20
2019-05-23T04:45:21.799Z,20.80
2019-05-23T04:46:21.777Z,20.10
2019-05-23T04:47:21.742Z,20.70
2019-05-23T04:48:21.713Z,23.20
2019-05-23T04:49:21.695Z,24.60
2019-05-23T04:50:21.656Z,23.10
2019-05-23T04:51:21.627Z,28.30
2019-05-23T04:52:21.597Z,30.90
2019-05-23T04:53:21.570Z,33.80
2019-05-23T04:54:21.540Z,32.80
2019-05-23T04:55:21.514Z,30.40
2019-05-23T04:56:21.485Z,31.70
2019-05-23T04:57:21.459Z,32.80
2019-05-23T04:58:21.428Z,37.40
2019-05-23T04:59:21.399Z,35.50
2019-05-23T05:00:21.370Z,32.20
2019-05-23T05:01:21.346Z,32.10
2019-05-23T05:02:26.464Z,29.50
2019-05-23T05:03:21.307Z,27.60
2019-05-23T05:04:21.261Z,30.50
2019-05-23T05:05:21.233Z,31.10
2019-05-23T05:06:21.207Z,32.00
2019-05-23T05:07:21.182Z,33.50
2019-05-23T05:08:21.151Z,32.70
2019-05-23T05:09:21.124Z,31.90
2019-05-23T05:10:21.093Z,30.80
2019-05-23T05:11:21.069Z,35.90
2019-05-23T05:12:21.042Z,29.60
2019-05-23T05:13:21.013Z,28.40
2019-05-23T05:14:20.990Z,25.70
2019-05-23T05:15:20.961Z,27.70
2019-05-23T05:16:20.933Z,28.60
2019-05-23T05:17:20.918Z,27.70
2019-05-23T05:18:20.878Z,26.80
2019-05-23T05:19:20.851Z,24.60
2019-05-23T05:20:20.825Z,26.90
2019-05-23T05:21:20.802Z,23.90
2019-05-23T05:22:20.773Z,27.00
2019-05-23T05:23:20.747Z,28.60
2019-05-23T05:24:20.721Z,24.00
2019-05-23T05:25:20.712Z,25.90
2019-05-23T05:26:20.678Z,22.40
2019-05-23T05:27:20.644Z,24.40
2019-05-23T05:28:20.617Z,21.00
2019-05-23T05:29:20.592Z,18.10
2019-05-23T05:30:20.569Z,18.30
2019-05-23T05:31:20.542Z,22.70
2019-05-23T05:32:20.521Z,20.40
2019-05-23T05:33:20.496Z,18.50
2019-05-23T05:34:20.475Z,15.10
2019-05-23T05:35:20.457Z,14.30
2019-05-23T05:36:20.427Z,14.30
2019-05-23T05:37:20.402Z,14.20
2019-05-23T05:38:20.377Z,15.00
2019-05-23T05:39:20.358Z,14.00
2019-05-23T05:40:20.342Z,13.20
2019-05-23T05:41:20.343Z,13.00
2019-05-23T05:42:20.291Z,12.70
2019-05-23T05:43:20.269Z,13.80
2019-05-23T05:44:20.274Z,10.80
2019-05-23T05:45:20.232Z,11.00
2019-05-23T05:46:20.205Z,13.90
2019-05-23T05:47:20.184Z,13.30
2019-05-23T05:48:20.161Z,11.00
2019-05-23T05:49:20.144Z,13.00
2019-05-23T05:50:20.119Z,11.70
2019-05-23T05:51:20.103Z,12.50
2019-05-23T05:52:20.076Z,11.00
2019-05-23T05:53:20.055Z,9.70
2019-05-23T05:54:20.033Z,10.00
2019-05-23T05:55:20.012Z,9.20
2019-05-23T05:56:19.994Z,9.90
2019-05-23T05:57:19.972Z,9.50
2019-05-23T05:58:19.949Z,9.30
2019-05-23T05:59:19.928Z,9.80
2019-05-23T06:00:19.916Z,11.70
2019-05-23T06:01:33.303Z,9.30
2019-05-23T06:02:19.912Z,9.00
2019-05-23T06:03:19.849Z,10.30
2019-05-23T06:04:19.822Z,9.70
2019-05-23T06:05:19.811Z,11.90
2019-05-23T06:06:19.784Z,10.20
2019-05-23T06:07:19.761Z,9.30
2019-05-23T06:08:19.737Z,9.30
2019-05-23T06:09:19.718Z,10.80
2019-05-23T06:10:19.698Z,9.30
2019-05-23T06:11:19.675Z,13.20
2019-05-23T06:12:19.653Z,13.30
2019-05-23T06:13:19.633Z,9.10
2019-05-23T06:14:19.625Z,11.40
2019-05-23T06:15:19.591Z,8.90
2019-05-23T06:16:19.574Z,10.90
2019-05-23T06:17:19.553Z,10.70
2019-05-23T06:18:19.526Z,7.90
2019-05-23T06:19:19.508Z,8.30
2019-05-23T06:20:19.487Z,8.80
2019-05-23T06:21:19.467Z,8.80
2019-05-23T06:22:19.446Z,8.80
2019-05-23T06:23:19.427Z,8.60
2019-05-23T06:24:37.802Z,9.80
2019-05-23T06:25:19.389Z,8.90
2019-05-23T06:26:19.370Z,8.50
2019-05-23T06:27:19.347Z,10.60
2019-05-23T06:28:19.327Z,13.50
2019-05-23T06:29:19.316Z,10.30
2019-05-23T06:30:19.285Z,10.00
2019-05-23T06:31:19.269Z,10.70
2019-05-23T06:32:19.247Z,9.20
2019-05-23T06:33:23.990Z,10.30
2019-05-23T06:34:19.218Z,9.30
2019-05-23T06:35:19.190Z,11.30
2019-05-23T06:36:19.169Z,11.40
2019-05-23T06:37:19.152Z,9.40
2019-05-23T06:38:19.132Z,10.40
2019-05-23T06:39:19.115Z,10.30
2019-05-23T06:40:19.163Z,11.20
2019-05-23T06:41:19.076Z,13.20
2019-05-23T06:42:19.064Z,12.20
2019-05-23T06:43:19.039Z,11.40
2019-05-23T06:44:19.059Z,11.70
2019-05-23T06:45:19.008Z,11.50
2019-05-23T06:46:18.991Z,11.10
2019-05-23T06:47:18.967Z,14.00
2019-05-23T06:48:18.952Z,11.20
2019-05-23T06:49:18.931Z,12.20
2019-05-23T06:50:18.911Z,11.10
2019-05-23T06:51:18.895Z,16.00
2019-05-23T06:52:18.903Z,10.60
2019-05-23T06:53:18.864Z,11.30
2019-05-23T06:54:18.839Z,10.80
2019-05-23T06:55:18.823Z,12.10
2019-05-23T06:56:18.811Z,12.60
2019-05-23T06:57:18.785Z,10.10
2019-05-23T06:58:18.815Z,9.30
2019-05-23T06:59:18.751Z,10.90
2019-05-23T07:00:18.734Z,10.50
2019-05-23T07:01:18.713Z,13.00
2019-05-23T07:02:18.697Z,15.00
2019-05-23T07:03:18.681Z,10.70
2019-05-23T07:04:18.656Z,10.00
2019-05-23T07:05:18.679Z,10.10
2019-05-23T07:06:18.621Z,11.80
2019-05-23T07:07:18.601Z,12.30
2019-05-23T07:08:18.583Z,9.20
2019-05-23T07:09:18.568Z,11.90
2019-05-23T07:10:18.571Z,11.30
2019-05-23T07:11:18.537Z,8.20
2019-05-23T07:12:18.517Z,9.30
2019-05-23T07:13:18.504Z,11.20
2019-05-23T07:14:18.537Z,9.40
2019-05-23T07:15:18.447Z,10.60
2019-05-23T07:16:18.431Z,10.70
2019-05-23T07:17:18.411Z,9.10
2019-05-23T07:18:18.392Z,8.90
2019-05-23T07:19:18.371Z,12.90
2019-05-23T07:20:18.361Z,10.70
2019-05-23T07:21:18.332Z,9.80
2019-05-23T07:22:19.557Z,9.50
2019-05-23T07:23:18.450Z,11.30
2019-05-23T07:24:18.272Z,10.80
2019-05-23T07:25:18.254Z,8.40
2019-05-23T07:26:18.236Z,8.70
2019-05-23T07:27:18.217Z,7.10
2019-05-23T07:28:18.196Z,9.30
2019-05-23T07:29:18.179Z,8.50
2019-05-23T07:30:18.159Z,7.20
2019-05-23T07:31:18.140Z,9.10
2019-05-23T07:32:18.133Z,9.00
2019-05-23T07:33:18.113Z,8.90
2019-05-23T07:34:18.089Z,7.70
2019-05-23T07:35:18.080Z,9.40
2019-05-23T07:36:18.053Z,7.20
2019-05-23T07:37:18.038Z,8.40
2019-05-23T07:38:18.030Z,11.70
2019-05-23T07:39:18.042Z,9.10
2019-05-23T07:40:17.993Z,6.90
2019-05-23T07:41:17.971Z,7.50
2019-05-23T07:42:17.951Z,7.40
2019-05-23T07:43:17.934Z,8.90
2019-05-23T07:44:18.015Z,13.70
2019-05-23T07:45:17.902Z,7.30
2019-05-23T07:46:17.884Z,8.20
2019-05-23T07:47:17.869Z,9.40
2019-05-23T07:48:17.858Z,6.90
2019-05-23T07:49:17.835Z,6.80
2019-05-23T07:50:17.817Z,10.30
2019-05-23T07:51:17.816Z,8.00
2019-05-23T07:52:17.789Z,8.00
2019-05-23T07:53:17.779Z,8.20
2019-05-23T07:54:17.751Z,8.60
2019-05-23T07:55:17.736Z,7.60
2019-05-23T07:56:17.721Z,7.10
2019-05-23T07:57:17.702Z,6.90
2019-05-23T07:58:17.689Z,6.40
2019-05-23T07:59:17.669Z,5.80
2019-05-23T08:00:17.651Z,5.60
2019-05-23T08:01:17.635Z,6.20
2019-05-23T08:02:17.619Z,7.70
2019-05-23T08:03:17.603Z,6.40
2019-05-23T08:04:22.073Z,5.90
2019-05-23T08:05:17.569Z,7.10
2019-05-23T08:06:17.557Z,6.20
2019-05-23T08:07:17.542Z,6.70
2019-05-23T08:08:17.538Z,7.80
2019-05-23T08:09:17.505Z,6.70
2019-05-23T08:10:32.547Z,6.70
2019-05-23T08:11:17.473Z,7.50
2019-05-23T08:12:17.458Z,9.30
2019-05-23T08:13:17.446Z,4.90
2019-05-23T08:14:17.428Z,7.80
2019-05-23T08:15:17.413Z,5.90
2019-05-23T08:16:17.395Z,5.70
2019-05-23T08:17:17.380Z,6.60
2019-05-23T08:18:17.364Z,7.10
2019-05-23T08:19:19.622Z,5.10
2019-05-23T08:20:17.331Z,4.30
2019-05-23T08:21:17.317Z,5.50
2019-05-23T08:22:17.302Z,6.00
2019-05-23T08:23:17.287Z,6.20
2019-05-23T08:24:17.271Z,6.50
2019-05-23T08:25:17.257Z,6.30
2019-05-23T08:26:17.239Z,5.20
2019-05-23T08:27:17.224Z,7.00
2019-05-23T08:28:17.208Z,5.40
2019-05-23T08:29:26.443Z,4.90
2019-05-23T08:30:17.177Z,5.60
2019-05-23T08:31:17.162Z,5.10
2019-05-23T08:32:17.145Z,6.10
2019-05-23T08:33:17.200Z,5.40
2019-05-23T08:34:17.131Z,7.30
2019-05-23T08:35:18.161Z,10.00
2019-05-23T08:36:17.086Z,5.20
2019-05-23T08:37:17.074Z,4.10
2019-05-23T08:38:17.056Z,6.00
2019-05-23T08:39:17.104Z,6.40
2019-05-23T08:40:17.038Z,4.70
2019-05-23T08:41:17.010Z,5.90
2019-05-23T08:42:16.994Z,6.00
2019-05-23T08:43:16.979Z,4.80
2019-05-23T08:44:16.963Z,5.20
2019-05-23T08:45:16.955Z,6.80
2019-05-23T08:46:16.932Z,4.60
2019-05-23T08:47:16.918Z,5.50
2019-05-23T08:48:16.901Z,6.20
2019-05-23T08:49:16.886Z,10.40
2019-05-23T08:50:16.870Z,7.70
2019-05-23T08:51:16.856Z,7.40
2019-05-23T08:52:16.844Z,9.50
2019-05-23T08:53:16.823Z,6.90
2019-05-23T08:54:16.807Z,5.90
2019-05-23T08:55:16.843Z,5.80
2019-05-23T08:56:19.575Z,5.70
2019-05-23T08:57:16.768Z,6.90
2019-05-23T08:58:17.371Z,6.00
2019-05-23T08:59:16.734Z,8.20
2019-05-23T09:00:16.716Z,7.20
2019-05-23T09:01:16.735Z,6.40
2019-05-23T09:02:16.688Z,5.30
2019-05-23T09:03:16.672Z,5.50
2019-05-23T09:04:16.660Z,7.20
2019-05-23T09:05:16.646Z,6.30
2019-05-23T09:06:16.626Z,6.50
2019-05-23T09:07:16.642Z,6.10
2019-05-23T09:08:17.354Z,7.70
2019-05-23T09:09:29.322Z,7.00
2019-05-23T09:10:16.565Z,6.50
2019-05-23T09:11:16.554Z,6.50
2019-05-23T09:12:16.578Z,7.10
2019-05-23T09:13:16.523Z,8.50
2019-05-23T09:14:16.507Z,7.20
2019-05-23T09:15:16.493Z,6.00
2019-05-23T09:16:16.477Z,5.90
2019-05-23T09:17:16.462Z,6.60
2019-05-23T09:18:16.448Z,7.90
2019-05-23T09:19:16.472Z,6.70
2019-05-23T09:20:16.417Z,8.30
2019-05-23T09:21:16.403Z,7.40
2019-05-23T09:22:16.386Z,6.40
2019-05-23T09:23:16.373Z,7.70
2019-05-23T09:24:16.361Z,7.60
2019-05-23T09:25:16.342Z,7.40
2019-05-23T09:26:16.328Z,10.90
2019-05-23T09:27:16.316Z,8.30
2019-05-23T09:28:16.299Z,6.90
2019-05-23T09:29:16.284Z,9.10
2019-05-23T09:30:16.267Z,7.40
2019-05-23T09:31:16.256Z,6.20
2019-05-23T09:32:16.237Z,8.30
2019-05-23T09:33:16.224Z,9.10
2019-05-23T09:34:16.216Z,6.90
2019-05-23T09:35:20.768Z,6.60
2019-05-23T09:36:16.230Z,7.50
2019-05-23T09:37:16.165Z,6.80
2019-05-23T09:38:16.155Z,8.40
2019-05-23T09:39:16.144Z,7.60
2019-05-23T09:40:16.129Z,6.60
2019-05-23T09:41:16.125Z,8.00
2019-05-23T09:42:16.092Z,8.00
2019-05-23T09:43:16.157Z,5.90
2019-05-23T09:44:16.063Z,6.30
2019-05-23T09:45:16.049Z,8.20
2019-05-23T09:46:16.035Z,6.40
2019-05-23T09:47:16.024Z,6.90
2019-05-23T09:48:16.005Z,7.20
2019-05-23T09:49:15.993Z,7.40
2019-05-23T09:50:15.976Z,6.80
2019-05-23T09:51:16.026Z,9.50
2019-05-23T09:52:16.145Z,6.60
2019-05-23T09:53:15.936Z,7.50
2019-05-23T09:54:15.918Z,9.20
2019-05-23T09:55:15.902Z,6.30
2019-05-23T09:56:15.894Z,5.80
2019-05-23T09:57:15.875Z,8.10
2019-05-23T09:58:15.862Z,6.60
2019-05-23T09:59:15.849Z,8.80
2019-05-23T10:00:15.838Z,7.10
2019-05-23T10:01:15.817Z,7.00
2019-05-23T10:02:15.801Z,6.30
2019-05-23T10:03:15.786Z,8.10
2019-05-23T10:04:15.773Z,6.40
2019-05-23T10:05:15.756Z,8.50
2019-05-23T10:06:15.750Z,7.40
2019-05-23T10:07:15.726Z,9.00
2019-05-23T10:08:15.719Z,9.00
2019-05-23T10:09:15.697Z,7.30
2019-05-23T10:10:15.691Z,7.90
2019-05-23T10:11:15.672Z,8.80
2019-05-23T10:12:15.655Z,7.70
2019-05-23T10:13:15.639Z,7.00
2019-05-23T10:14:15.622Z,7.10
2019-05-23T10:15:15.615Z,7.00
2019-05-23T10:16:15.602Z,6.30
2019-05-23T10:17:15.580Z,8.10
2019-05-23T10:18:15.566Z,8.60
2019-05-23T10:19:15.549Z,8.40
2019-05-23T10:20:15.543Z,8.80
2019-05-23T10:21:15.519Z,8.00
2019-05-23T10:22:15.507Z,9.10
2019-05-23T10:23:15.489Z,6.80
2019-05-23T10:24:15.475Z,6.40
2019-05-23T10:25:15.461Z,8.40
2019-05-23T10:26:15.445Z,8.10
2019-05-23T10:27:15.429Z,8.00
2019-05-23T10:28:15.416Z,6.40
2019-05-23T10:29:15.403Z,11.40
2019-05-23T10:30:15.383Z,8.90
2019-05-23T10:31:15.370Z,8.10
2019-05-23T10:32:15.356Z,9.10
2019-05-23T10:33:15.344Z,8.40
2019-05-23T10:34:15.369Z,9.30
2019-05-23T10:35:15.311Z,7.60
2019-05-23T10:36:15.296Z,9.70
2019-05-23T10:37:15.280Z,7.50
2019-05-23T10:38:15.266Z,7.20
2019-05-23T10:39:15.252Z,7.60
2019-05-23T10:40:15.236Z,7.90
2019-05-23T10:41:15.222Z,7.30
2019-05-23T10:42:15.205Z,7.80
2019-05-23T10:43:15.192Z,6.20
2019-05-23T10:44:15.177Z,6.40
2019-05-23T10:45:15.165Z,6.60
2019-05-23T10:46:15.148Z,9.00
2019-05-23T10:47:15.136Z,8.40
2019-05-23T10:48:15.120Z,9.20
2019-05-23T10:49:15.106Z,7.30
2019-05-23T10:50:15.091Z,7.70
2019-05-23T10:51:15.076Z,7.60
2019-05-23T10:52:15.063Z,7.40
2019-05-23T10:53:15.049Z,7.10
2019-05-23T10:54:15.032Z,7.60
2019-05-23T10:55:15.017Z,7.60
2019-05-23T10:56:20.042Z,6.70
2019-05-23T10:57:14.988Z,7.50
2019-05-23T10:58:14.978Z,7.10
2019-05-23T10:59:14.967Z,7.20
2019-05-23T11:00:14.946Z,7.10
2019-05-23T11:01:14.933Z,6.50
2019-05-23T11:02:14.916Z,7.80
2019-05-23T11:03:14.903Z,5.60
2019-05-23T11:04:14.954Z,6.60
2019-05-23T11:05:14.884Z,8.00
2019-05-23T11:06:16.784Z,5.30
2019-05-23T11:07:14.846Z,7.30
2019-05-23T11:08:14.835Z,6.60
2019-05-23T11:09:14.827Z,5.50
2019-05-23T11:10:14.798Z,7.00
2019-05-23T11:11:15.176Z,6.00
2019-05-23T11:12:14.770Z,6.00
2019-05-23T11:13:14.754Z,6.80
2019-05-23T11:14:14.749Z,5.00
2019-05-23T11:15:14.725Z,7.80
2019-05-23T11:16:14.712Z,7.80
2019-05-23T11:17:14.696Z,7.10
2019-05-23T11:18:14.685Z,6.60
2019-05-23T11:19:14.667Z,7.00
2019-05-23T11:20:14.656Z,6.50
2019-05-23T11:21:14.642Z,5.80
2019-05-23T11:22:14.623Z,5.60
2019-05-23T11:23:14.607Z,6.00
2019-05-23T11:24:14.641Z,5.60
2019-05-23T11:25:14.586Z,5.20
2019-05-23T11:26:14.569Z,5.70
2019-05-23T11:27:14.575Z,5.60
2019-05-23T11:28:14.544Z,5.60
2019-05-23T11:29:14.523Z,6.40
2019-05-23T11:30:14.508Z,5.10
2019-05-23T11:31:14.492Z,7.40
2019-05-23T11:32:14.538Z,6.60
2019-05-23T11:33:14.463Z,5.10
2019-05-23T11:34:14.446Z,5.20
2019-05-23T11:35:14.433Z,6.00
2019-05-23T11:36:14.419Z,4.80
2019-05-23T11:37:14.408Z,4.20
2019-05-23T11:38:14.389Z,4.60
2019-05-23T11:39:14.376Z,3.90
2019-05-23T11:40:14.405Z,6.50
2019-05-23T11:41:14.348Z,4.90
2019-05-23T11:42:14.335Z,5.60
2019-05-23T11:43:14.318Z,5.40
2019-05-23T11:44:14.304Z,5.30
2019-05-23T11:45:14.291Z,3.90
2019-05-23T11:46:14.274Z,4.70
2019-05-23T11:47:14.263Z,6.40
2019-05-23T11:48:16.171Z,4.70
2019-05-23T11:49:14.234Z,3.90
2019-05-23T11:50:14.220Z,5.50
2019-05-23T11:51:14.209Z,3.40
2019-05-23T11:52:14.543Z,4.60
2019-05-23T11:53:14.178Z,4.10
2019-05-23T11:54:14.166Z,5.30
2019-05-23T11:55:14.151Z,4.80
2019-05-23T11:56:14.133Z,5.30
2019-05-23T11:57:14.118Z,4.70
2019-05-23T11:58:14.104Z,4.50
2019-05-23T11:59:14.094Z,4.90
2019-05-23T12:00:14.076Z,4.80
2019-05-23T12:01:20.545Z,4.80
2019-05-23T12:02:14.045Z,6.10
2019-05-23T12:03:14.032Z,4.40
2019-05-23T12:04:14.018Z,3.90
2019-05-23T12:05:14.005Z,4.50
2019-05-23T12:06:13.989Z,4.40
2019-05-23T12:07:13.974Z,4.20
2019-05-23T12:08:13.959Z,5.00
2019-05-23T12:09:13.947Z,4.90
2019-05-23T12:10:13.932Z,5.90
2019-05-23T12:11:13.974Z,6.60
2019-05-23T12:12:13.901Z,3.80
2019-05-23T12:13:13.887Z,3.90
2019-05-23T12:14:13.872Z,4.40
2019-05-23T12:15:13.860Z,5.10
2019-05-23T12:16:13.841Z,6.30
2019-05-23T12:17:14.170Z,4.70
2019-05-23T12:18:13.812Z,5.00
2019-05-23T12:19:13.800Z,4.70
2019-05-23T12:20:13.781Z,4.10
2019-05-23T12:21:13.769Z,5.30
2019-05-23T12:22:13.754Z,5.00
2019-05-23T12:23:13.737Z,4.40
2019-05-23T12:24:13.721Z,4.00
2019-05-23T12:25:22.205Z,6.80
2019-05-23T12:26:13.693Z,6.90
2019-05-23T12:27:13.680Z,6.70
2019-05-23T12:28:13.703Z,5.60
2019-05-23T12:29:13.650Z,4.20
2019-05-23T12:30:13.636Z,4.60
2019-05-23T12:31:13.628Z,6.50
2019-05-23T12:32:13.616Z,4.40
2019-05-23T12:33:13.630Z,3.60
2019-05-23T12:34:13.578Z,4.30
2019-05-23T12:35:13.576Z,4.40
2019-05-23T12:36:13.553Z,3.40
2019-05-23T12:37:18.857Z,4.30
2019-05-23T12:38:13.544Z,3.60
2019-05-23T12:39:13.507Z,3.20
2019-05-23T12:40:13.495Z,4.00
2019-05-23T12:41:13.484Z,4.80
2019-05-23T12:42:13.468Z,4.00
2019-05-23T12:43:13.448Z,4.10
2019-05-23T12:44:17.128Z,3.90
2019-05-23T12:45:13.446Z,4.20
2019-05-23T12:46:13.451Z,8.10
2019-05-23T12:47:13.390Z,4.20
2019-05-23T12:48:13.374Z,4.10
2019-05-23T12:49:13.359Z,4.00
2019-05-23T12:50:13.347Z,3.60
2019-05-23T12:51:13.333Z,4.00
2019-05-23T12:52:13.314Z,3.20
2019-05-23T12:53:13.303Z,3.70
2019-05-23T12:54:13.302Z,4.00
2019-05-23T12:55:13.275Z,4.20
2019-05-23T12:56:13.280Z,4.20
2019-05-23T12:57:13.243Z,3.00
2019-05-23T12:58:13.228Z,5.00
2019-05-23T12:59:13.218Z,3.70
2019-05-23T13:00:13.198Z,4.20
2019-05-23T13:01:13.197Z,5.90
2019-05-23T13:02:13.169Z,5.50
2019-05-23T13:03:13.155Z,5.00
2019-05-23T13:04:13.141Z,2.50